sensor_id;sensor_type;location;lat;lon;timestamp;P1;durP1;ratioP1;P2;durP2;ratioP2
1090;SDS011;534;48.704;9.122;2023-04-09T04:00:33;5.43;;;4.93;;
1090;SDS011;534;48.704;9.122;2023-04-09T04:03:00;5.73;;;5.23;;
1090;SDS011;534;48.704;9.122;2023-04-09T04:05:27;5.40;;;4.90;;
1090;SDS011;534;48.704;9.122;2023-04-09T04:07:53;5.20;;;4.70;;
1090;SDS011;534;48.704;9.122;2023-04-09T04:10:20;5.23;;;4.57;;
1090;SDS011;534;48.704;9.122;2023-04-09T04:12:47;4.80;;;4.30;;
1090;SDS011;534;48.704;9.122;2023-04-09T04:15:13;5.90;;;5.40;;
1090;SDS011;534;48.704;9.122;2023-04-09T04:17:41;6.00;;;4.93;;
1090;SDS011;534;48.704;9.122;2023-04-09T04:20:08;5.30;;;4.80;;
1090;SDS011;534;48.704;9.122;2023-04-09T04:22:36;5.43;;;4.93;;
1090;SDS011;534;48.704;9.122;2023-04-09T04:25:02;5.63;;;5.13;;
1090;SDS011;534;48.704;9.122;2023-04-09T04:27:29;5.50;;;5.00;;
1090;SDS011;534;48.704;9.122;2023-04-09T04:29:56;5.90;;;5.40;;
1090;SDS011;534;48.704;9.122;2023-04-09T04:32:24;5.47;;;4.97;;
1090;SDS011;534;48.704;9.122;2023-04-09T04:34:52;5.73;;;5.23;;
1090;SDS011;534;48.704;9.122;2023-04-09T04:37:19;7.77;;;5.40;;
1090;SDS011;534;48.704;9.122;2023-04-09T04:39:45;6.10;;;5.53;;
1090;SDS011;534;48.704;9.122;2023-04-09T04:42:12;6.00;;;5.40;;
1090;SDS011;534;48.704;9.122;2023-04-09T04:44:39;5.57;;;4.97;;
1090;SDS011;534;48.704;9.122;2023-04-09T04:47:06;5.03;;;4.63;;
1090;SDS011;534;48.704;9.122;2023-04-09T04:49:32;6.40;;;5.80;;
1090;SDS011;534;48.704;9.122;2023-04-09T04:52:00;5.93;;;5.43;;
1090;SDS011;534;48.704;9.122;2023-04-09T04:54:27;6.30;;;5.80;;
1090;SDS011;534;48.704;9.122;2023-04-09T04:56:54;6.20;;;5.50;;
1090;SDS011;534;48.704;9.122;2023-04-09T04:59:21;6.10;;;5.50;;
1090;SDS011;534;48.704;9.122;2023-04-09T05:01:47;5.70;;;5.20;;
1090;SDS011;534;48.704;9.122;2023-04-09T05:04:14;6.03;;;5.53;;
1090;SDS011;534;48.704;9.122;2023-04-09T05:06:41;5.50;;;5.00;;
1090;SDS011;534;48.704;9.122;2023-04-09T05:09:09;5.53;;;5.03;;
1090;SDS011;534;48.704;9.122;2023-04-09T05:11:35;6.10;;;5.60;;
1090;SDS011;534;48.704;9.122;2023-04-09T05:14:02;5.27;;;4.77;;
1090;SDS011;534;48.704;9.122;2023-04-09T05:16:30;6.17;;;5.60;;
1090;SDS011;534;48.704;9.122;2023-04-09T05:18:56;6.30;;;5.80;;
1090;SDS011;534;48.704;9.122;2023-04-09T05:21:23;6.47;;;5.87;;
1090;SDS011;534;48.704;9.122;2023-04-09T05:23:50;6.00;;;5.50;;
1090;SDS011;534;48.704;9.122;2023-04-09T05:26:18;6.13;;;5.53;;
1090;SDS011;534;48.704;9.122;2023-04-09T05:28:45;6.23;;;5.70;;
1090;SDS011;534;48.704;9.122;2023-04-09T05:31:12;6.00;;;5.50;;
1090;SDS011;534;48.704;9.122;2023-04-09T05:33:39;5.50;;;5.00;;
1090;SDS011;534;48.704;9.122;2023-04-09T05:36:06;5.60;;;5.10;;
1090;SDS011;534;48.704;9.122;2023-04-09T05:38:33;6.03;;;5.43;;
1090;SDS011;534;48.704;9.122;2023-04-09T05:40:59;5.63;;;5.13;;
1090;SDS011;534;48.704;9.122;2023-04-09T05:43:27;6.00;;;5.50;;
1090;SDS011;534;48.704;9.122;2023-04-09T05:45:54;5.97;;;5.47;;
1090;SDS011;534;48.704;9.122;2023-04-09T05:48:21;6.20;;;5.60;;
1090;SDS011;534;48.704;9.122;2023-04-09T05:50:48;6.80;;;6.10;;
1090;SDS011;534;48.704;9.122;2023-04-09T05:53:16;6.87;;;6.27;;
1090;SDS011;534;48.704;9.122;2023-04-09T05:55:43;5.70;;;5.20;;
1090;SDS011;534;48.704;9.122;2023-04-09T05:58:10;6.67;;;6.10;;
1090;SDS011;534;48.704;9.122;2023-04-09T06:00:38;6.37;;;5.87;;
1090;SDS011;534;48.704;9.122;2023-04-09T06:03:04;6.00;;;5.50;;
1090;SDS011;534;48.704;9.122;2023-04-09T06:05:31;4.83;;;4.33;;
1090;SDS011;534;48.704;9.122;2023-04-09T06:07:58;5.20;;;4.70;;
1090;SDS011;534;48.704;9.122;2023-04-09T06:10:24;5.13;;;4.63;;
1090;SDS011;534;48.704;9.122;2023-04-09T06:12:51;5.83;;;5.33;;
1090;SDS011;534;48.704;9.122;2023-04-09T06:15:18;4.80;;;4.40;;
1090;SDS011;534;48.704;9.122;2023-04-09T06:17:46;5.10;;;4.70;;
1090;SDS011;534;48.704;9.122;2023-04-09T06:20:13;4.83;;;4.43;;
1090;SDS011;534;48.704;9.122;2023-04-09T06:22:40;4.63;;;4.23;;
1090;SDS011;534;48.704;9.122;2023-04-09T06:25:06;4.80;;;4.40;;
1090;SDS011;534;48.704;9.122;2023-04-09T06:27:33;4.40;;;4.00;;
1090;SDS011;534;48.704;9.122;2023-04-09T06:30:00;5.20;;;4.70;;
1090;SDS011;534;48.704;9.122;2023-04-09T06:32:27;5.13;;;4.63;;
1090;SDS011;534;48.704;9.122;2023-04-09T06:34:55;4.43;;;4.03;;
1090;SDS011;534;48.704;9.122;2023-04-09T06:37:21;4.60;;;4.20;;
1090;SDS011;534;48.704;9.122;2023-04-09T06:39:48;4.83;;;4.43;;
1090;SDS011;534;48.704;9.122;2023-04-09T06:42:15;4.47;;;4.07;;
1090;SDS011;534;48.704;9.122;2023-04-09T06:44:41;4.67;;;4.27;;
1090;SDS011;534;48.704;9.122;2023-04-09T06:47:08;4.70;;;4.30;;
1090;SDS011;534;48.704;9.122;2023-04-09T06:49:35;4.63;;;4.23;;
1090;SDS011;534;48.704;9.122;2023-04-09T06:52:03;4.67;;;4.27;;
1090;SDS011;534;48.704;9.122;2023-04-09T06:54:31;4.73;;;4.33;;
1090;SDS011;534;48.704;9.122;2023-04-09T06:56:58;4.53;;;4.13;;
1090;SDS011;534;48.704;9.122;2023-04-09T06:59:24;5.30;;;4.80;;
1090;SDS011;534;48.704;9.122;2023-04-09T07:01:51;5.20;;;4.70;;
1090;SDS011;534;48.704;9.122;2023-04-09T07:04:18;4.63;;;4.23;;
1090;SDS011;534;48.704;9.122;2023-04-09T07:06:45;4.73;;;4.33;;
1090;SDS011;534;48.704;9.122;2023-04-09T07:09:12;5.77;;;5.27;;
1090;SDS011;534;48.704;9.122;2023-04-09T07:11:39;5.20;;;4.70;;
1090;SDS011;534;48.704;9.122;2023-04-09T07:14:06;5.17;;;4.77;;
1090;SDS011;534;48.704;9.122;2023-04-09T07:16:32;5.37;;;4.87;;
1090;SDS011;534;48.704;9.122;2023-04-09T07:18:59;5.00;;;4.60;;
1090;SDS011;534;48.704;9.122;2023-04-09T07:21:26;5.00;;;4.60;;
1090;SDS011;534;48.704;9.122;2023-04-09T07:23:52;5.87;;;5.37;;
1090;SDS011;534;48.704;9.122;2023-04-09T07:26:21;5.47;;;4.97;;
1090;SDS011;534;48.704;9.122;2023-04-09T07:28:48;5.37;;;4.97;;
1090;SDS011;534;48.704;9.122;2023-04-09T07:31:14;5.20;;;4.80;;
1090;SDS011;534;48.704;9.122;2023-04-09T07:33:41;5.73;;;4.80;;
1090;SDS011;534;48.704;9.122;2023-04-09T07:36:08;4.90;;;4.40;;
1090;SDS011;534;48.704;9.122;2023-04-09T07:38:35;4.47;;;4.07;;
1090;SDS011;534;48.704;9.122;2023-04-09T07:41:01;4.60;;;4.20;;
1090;SDS011;534;48.704;9.122;2023-04-09T07:43:29;4.30;;;3.90;;
1090;SDS011;534;48.704;9.122;2023-04-09T07:45:57;5.00;;;4.60;;
1090;SDS011;534;48.704;9.122;2023-04-09T07:48:23;4.80;;;4.40;;
1090;SDS011;534;48.704;9.122;2023-04-09T07:50:52;4.90;;;4.50;;
1090;SDS011;534;48.704;9.122;2023-04-09T07:53:18;4.40;;;3.90;;
1090;SDS011;534;48.704;9.122;2023-04-09T07:55:45;4.40;;;4.00;;
1090;SDS011;534;48.704;9.122;2023-04-09T07:58:11;4.13;;;3.73;;
1090;SDS011;534;48.704;9.122;2023-04-09T08:00:39;4.73;;;4.33;;
1090;SDS011;534;48.704;9.122;2023-04-09T08:03:06;4.80;;;4.40;;
1090;SDS011;534;48.704;9.122;2023-04-09T08:05:33;4.10;;;3.70;;
1090;SDS011;534;48.704;9.122;2023-04-09T08:08:02;4.10;;;3.70;;
1090;SDS011;534;48.704;9.122;2023-04-09T08:10:28;3.80;;;3.50;;
1090;SDS011;534;48.704;9.122;2023-04-09T08:12:55;4.30;;;3.50;;
1090;SDS011;534;48.704;9.122;2023-04-09T08:15:21;4.17;;;3.77;;
1090;SDS011;534;48.704;9.122;2023-04-09T08:17:49;3.97;;;3.57;;
1090;SDS011;534;48.704;9.122;2023-04-09T08:20:16;3.47;;;3.17;;
1090;SDS011;534;48.704;9.122;2023-04-09T08:22:43;4.20;;;3.73;;
1090;SDS011;534;48.704;9.122;2023-04-09T08:25:10;4.33;;;3.93;;
1090;SDS011;534;48.704;9.122;2023-04-09T08:27:37;5.33;;;4.83;;
1090;SDS011;534;48.704;9.122;2023-04-09T08:30:04;4.70;;;4.30;;
1090;SDS011;534;48.704;9.122;2023-04-09T08:32:31;4.20;;;3.80;;
1090;SDS011;534;48.704;9.122;2023-04-09T08:34:59;4.10;;;3.70;;
1090;SDS011;534;48.704;9.122;2023-04-09T08:37:26;3.77;;;3.47;;
1090;SDS011;534;48.704;9.122;2023-04-09T08:39:53;4.37;;;3.93;;
1090;SDS011;534;48.704;9.122;2023-04-09T08:42:20;4.50;;;3.93;;
1090;SDS011;534;48.704;9.122;2023-04-09T08:44:48;4.40;;;4.00;;
1090;SDS011;534;48.704;9.122;2023-04-09T08:47:15;3.90;;;3.50;;
1090;SDS011;534;48.704;9.122;2023-04-09T08:49:43;3.73;;;3.33;;
1090;SDS011;534;48.704;9.122;2023-04-09T08:52:11;4.17;;;3.77;;
1090;SDS011;534;48.704;9.122;2023-04-09T08:54:40;3.43;;;3.13;;
1090;SDS011;534;48.704;9.122;2023-04-09T08:57:06;4.03;;;3.63;;
1090;SDS011;534;48.704;9.122;2023-04-09T08:59:33;4.13;;;3.67;;
1090;SDS011;534;48.704;9.122;2023-04-09T09:02:07;3.83;;;3.40;;
1090;SDS011;534;48.704;9.122;2023-04-09T09:04:44;4.10;;;3.70;;
1090;SDS011;534;48.704;9.122;2023-04-09T09:07:13;3.60;;;3.30;;
1090;SDS011;534;48.704;9.122;2023-04-09T09:09:50;4.10;;;3.70;;
1090;SDS011;534;48.704;9.122;2023-04-09T09:12:34;4.17;;;3.77;;
1090;SDS011;534;48.704;9.122;2023-04-09T09:15:05;4.50;;;4.10;;
1090;SDS011;534;48.704;9.122;2023-04-09T09:17:52;3.50;;;3.17;;
1090;SDS011;534;48.704;9.122;2023-04-09T09:20:20;4.37;;;3.97;;
1090;SDS011;534;48.704;9.122;2023-04-09T09:22:49;4.27;;;3.87;;
1090;SDS011;534;48.704;9.122;2023-04-09T09:25:17;4.37;;;3.97;;
1090;SDS011;534;48.704;9.122;2023-04-09T09:27:47;3.90;;;3.50;;
1090;SDS011;534;48.704;9.122;2023-04-09T09:30:19;4.27;;;3.87;;
1090;SDS011;534;48.704;9.122;2023-04-09T09:32:47;4.37;;;3.93;;
1090;SDS011;534;48.704;9.122;2023-04-09T09:35:16;4.37;;;3.97;;
1090;SDS011;534;48.704;9.122;2023-04-09T09:37:43;4.27;;;3.87;;
1090;SDS011;534;48.704;9.122;2023-04-09T09:40:12;2.90;;;2.40;;
1090;SDS011;534;48.704;9.122;2023-04-09T09:42:53;2.93;;;2.63;;
1090;SDS011;534;48.704;9.122;2023-04-09T09:45:20;3.50;;;3.20;;
1090;SDS011;534;48.704;9.122;2023-04-09T09:47:47;4.20;;;3.80;;
1090;SDS011;534;48.704;9.122;2023-04-09T09:50:15;4.70;;;3.40;;
1090;SDS011;534;48.704;9.122;2023-04-09T09:52:42;3.40;;;3.10;;
1090;SDS011;534;48.704;9.122;2023-04-09T09:55:13;3.20;;;2.77;;
1090;SDS011;534;48.704;9.122;2023-04-09T09:57:43;4.30;;;3.70;;
1090;SDS011;534;48.704;9.122;2023-04-09T10:00:11;3.63;;;3.17;;
1090;SDS011;534;48.704;9.122;2023-04-09T10:02:40;3.80;;;3.50;;
1090;SDS011;534;48.704;9.122;2023-04-09T10:05:11;4.07;;;3.70;;
1090;SDS011;534;48.704;9.122;2023-04-09T10:07:38;4.27;;;3.87;;
1090;SDS011;534;48.704;9.122;2023-04-09T10:10:06;2.93;;;2.63;;
1090;SDS011;534;48.704;9.122;2023-04-09T10:12:35;3.27;;;2.50;;
1090;SDS011;534;48.704;9.122;2023-04-09T10:15:06;3.77;;;3.37;;
1090;SDS011;534;48.704;9.122;2023-04-09T10:17:34;3.40;;;3.10;;
1090;SDS011;534;48.704;9.122;2023-04-09T10:20:09;3.63;;;3.20;;
1090;SDS011;534;48.704;9.122;2023-04-09T10:22:39;4.80;;;2.60;;
1090;SDS011;534;48.704;9.122;2023-04-09T10:25:11;2.80;;;2.20;;
1090;SDS011;534;48.704;9.122;2023-04-09T10:27:39;2.70;;;2.20;;
1090;SDS011;534;48.704;9.122;2023-04-09T10:30:08;3.43;;;3.13;;
1090;SDS011;534;48.704;9.122;2023-04-09T10:32:35;4.07;;;3.33;;
1090;SDS011;534;48.704;9.122;2023-04-09T10:35:02;3.47;;;3.17;;
1090;SDS011;534;48.704;9.122;2023-04-09T10:37:29;2.90;;;2.60;;
1090;SDS011;534;48.704;9.122;2023-04-09T10:39:56;3.80;;;3.40;;
1090;SDS011;534;48.704;9.122;2023-04-09T10:42:25;3.50;;;3.10;;
1090;SDS011;534;48.704;9.122;2023-04-09T10:45:05;3.07;;;2.70;;
1090;SDS011;534;48.704;9.122;2023-04-09T10:47:34;2.93;;;2.50;;
1090;SDS011;534;48.704;9.122;2023-04-09T10:50:17;3.37;;;3.00;;
1090;SDS011;534;48.704;9.122;2023-04-09T10:52:45;3.20;;;2.80;;
1090;SDS011;534;48.704;9.122;2023-04-09T10:57:59;3.53;;;3.20;;
1090;SDS011;534;48.704;9.122;2023-04-09T11:00:27;2.80;;;2.33;;
1090;SDS011;534;48.704;9.122;2023-04-09T11:02:58;2.90;;;2.60;;
1090;SDS011;534;48.704;9.122;2023-04-09T11:05:40;2.83;;;2.40;;
1090;SDS011;534;48.704;9.122;2023-04-09T11:08:08;2.83;;;2.20;;
1090;SDS011;534;48.704;9.122;2023-04-09T11:10:36;2.83;;;2.37;;
1090;SDS011;534;48.704;9.122;2023-04-09T11:13:04;2.90;;;2.30;;
1090;SDS011;534;48.704;9.122;2023-04-09T11:15:33;2.60;;;2.20;;
1090;SDS011;534;48.704;9.122;2023-04-09T11:18:00;5.30;;;4.80;;
1090;SDS011;534;48.704;9.122;2023-04-09T11:20:27;2.77;;;2.37;;
1090;SDS011;534;48.704;9.122;2023-04-09T11:22:55;3.30;;;2.80;;
1090;SDS011;534;48.704;9.122;2023-04-09T11:25:23;2.40;;;2.03;;
1090;SDS011;534;48.704;9.122;2023-04-09T11:27:51;2.60;;;2.30;;
1090;SDS011;534;48.704;9.122;2023-04-09T11:30:18;3.10;;;2.50;;
1090;SDS011;534;48.704;9.122;2023-04-09T11:32:46;3.07;;;2.53;;
1090;SDS011;534;48.704;9.122;2023-04-09T11:35:14;3.17;;;2.40;;
1090;SDS011;534;48.704;9.122;2023-04-09T11:37:42;2.73;;;2.37;;
1090;SDS011;534;48.704;9.122;2023-04-09T11:40:16;2.60;;;2.23;;
1090;SDS011;534;48.704;9.122;2023-04-09T11:42:44;3.20;;;2.90;;
1090;SDS011;534;48.704;9.122;2023-04-09T11:45:13;3.73;;;3.30;;
1090;SDS011;534;48.704;9.122;2023-04-09T11:47:41;2.70;;;2.10;;
1090;SDS011;534;48.704;9.122;2023-04-09T11:50:10;2.80;;;2.50;;
1090;SDS011;534;48.704;9.122;2023-04-09T11:52:38;2.37;;;2.07;;
1090;SDS011;534;48.704;9.122;2023-04-09T11:55:06;3.03;;;2.70;;
1090;SDS011;534;48.704;9.122;2023-04-09T11:57:40;3.10;;;2.30;;
1090;SDS011;534;48.704;9.122;2023-04-09T12:00:08;2.80;;;2.40;;
1090;SDS011;534;48.704;9.122;2023-04-09T12:02:37;2.47;;;1.90;;
1090;SDS011;534;48.704;9.122;2023-04-09T12:05:06;2.60;;;2.10;;
1090;SDS011;534;48.704;9.122;2023-04-09T12:07:35;2.53;;;2.17;;
1090;SDS011;534;48.704;9.122;2023-04-09T12:10:03;2.80;;;2.50;;
1090;SDS011;534;48.704;9.122;2023-04-09T12:12:30;2.70;;;2.33;;
1090;SDS011;534;48.704;9.122;2023-04-09T12:15:06;2.80;;;2.47;;
1090;SDS011;534;48.704;9.122;2023-04-09T12:17:37;2.87;;;2.13;;
1090;SDS011;534;48.704;9.122;2023-04-09T12:20:04;2.90;;;2.57;;
1090;SDS011;534;48.704;9.122;2023-04-09T12:22:33;3.33;;;2.90;;
1090;SDS011;534;48.704;9.122;2023-04-09T12:25:05;3.10;;;2.63;;
1090;SDS011;534;48.704;9.122;2023-04-09T12:27:32;2.80;;;2.50;;
1090;SDS011;534;48.704;9.122;2023-04-09T12:29:58;2.50;;;2.23;;
1090;SDS011;534;48.704;9.122;2023-04-09T12:32:25;3.03;;;2.73;;
1090;SDS011;534;48.704;9.122;2023-04-09T12:34:52;2.80;;;2.47;;
1090;SDS011;534;48.704;9.122;2023-04-09T12:37:18;3.00;;;2.70;;
1090;SDS011;534;48.704;9.122;2023-04-09T12:39:47;2.57;;;2.07;;
1090;SDS011;534;48.704;9.122;2023-04-09T12:42:14;2.93;;;2.50;;
1090;SDS011;534;48.704;9.122;2023-04-09T12:44:41;3.40;;;3.07;;
1090;SDS011;534;48.704;9.122;2023-04-09T12:47:08;3.07;;;2.47;;
1090;SDS011;534;48.704;9.122;2023-04-09T12:49:35;2.73;;;2.30;;
1090;SDS011;534;48.704;9.122;2023-04-09T12:52:01;2.50;;;2.07;;
1090;SDS011;534;48.704;9.122;2023-04-09T12:54:28;3.23;;;2.53;;
1090;SDS011;534;48.704;9.122;2023-04-09T12:56:56;3.23;;;2.90;;
1090;SDS011;534;48.704;9.122;2023-04-09T12:59:23;2.70;;;2.30;;
1090;SDS011;534;48.704;9.122;2023-04-09T13:01:50;3.10;;;2.80;;
1090;SDS011;534;48.704;9.122;2023-04-09T13:04:16;2.83;;;2.53;;
1090;SDS011;534;48.704;9.122;2023-04-09T13:06:43;2.90;;;2.27;;
1090;SDS011;534;48.704;9.122;2023-04-09T13:09:10;2.70;;;2.30;;
1090;SDS011;534;48.704;9.122;2023-04-09T13:11:36;2.67;;;2.47;;
1090;SDS011;534;48.704;9.122;2023-04-09T13:14:04;3.20;;;2.90;;
1090;SDS011;534;48.704;9.122;2023-04-09T13:16:31;2.70;;;2.30;;
1090;SDS011;534;48.704;9.122;2023-04-09T13:18:58;3.30;;;3.00;;
1090;SDS011;534;48.704;9.122;2023-04-09T13:21:24;2.80;;;2.40;;
1090;SDS011;534;48.704;9.122;2023-04-09T13:23:51;3.17;;;2.50;;
1090;SDS011;534;48.704;9.122;2023-04-09T13:26:18;2.77;;;2.37;;
1090;SDS011;534;48.704;9.122;2023-04-09T13:28:44;2.90;;;2.60;;
1090;SDS011;534;48.704;9.122;2023-04-09T13:31:12;2.77;;;1.93;;
1090;SDS011;534;48.704;9.122;2023-04-09T13:33:39;2.77;;;2.23;;
1090;SDS011;534;48.704;9.122;2023-04-09T13:36:06;2.70;;;2.10;;
1090;SDS011;534;48.704;9.122;2023-04-09T13:38:32;3.20;;;2.50;;
1090;SDS011;534;48.704;9.122;2023-04-09T13:40:59;2.50;;;1.93;;
1090;SDS011;534;48.704;9.122;2023-04-09T13:43:26;2.30;;;1.80;;
1090;SDS011;534;48.704;9.122;2023-04-09T13:45:53;2.77;;;2.20;;
1090;SDS011;534;48.704;9.122;2023-04-09T13:48:21;2.90;;;2.20;;
1090;SDS011;534;48.704;9.122;2023-04-09T13:50:49;3.00;;;2.57;;
1090;SDS011;534;48.704;9.122;2023-04-09T13:53:15;2.73;;;2.40;;
1090;SDS011;534;48.704;9.122;2023-04-09T13:55:42;2.60;;;1.97;;
1090;SDS011;534;48.704;9.122;2023-04-09T13:58:09;2.40;;;1.80;;
1090;SDS011;534;48.704;9.122;2023-04-09T14:00:36;3.13;;;2.50;;
1090;SDS011;534;48.704;9.122;2023-04-09T14:03:03;2.60;;;2.10;;
1090;SDS011;534;48.704;9.122;2023-04-09T14:05:31;2.60;;;2.27;;
1090;SDS011;534;48.704;9.122;2023-04-09T14:07:58;2.87;;;2.47;;
1090;SDS011;534;48.704;9.122;2023-04-09T14:10:25;2.70;;;2.40;;
1090;SDS011;534;48.704;9.122;2023-04-09T14:12:52;3.00;;;2.50;;
1090;SDS011;534;48.704;9.122;2023-04-09T14:15:19;2.57;;;2.00;;
1090;SDS011;534;48.704;9.122;2023-04-09T14:17:46;2.80;;;2.37;;
1090;SDS011;534;48.704;9.122;2023-04-09T14:20:13;2.97;;;2.37;;
1090;SDS011;534;48.704;9.122;2023-04-09T14:22:41;2.60;;;2.13;;
1090;SDS011;534;48.704;9.122;2023-04-09T14:25:13;3.10;;;2.50;;
1090;SDS011;534;48.704;9.122;2023-04-09T14:27:39;2.70;;;2.10;;
1090;SDS011;534;48.704;9.122;2023-04-09T14:30:07;2.57;;;2.00;;
1090;SDS011;534;48.704;9.122;2023-04-09T14:32:35;2.70;;;2.30;;
1090;SDS011;534;48.704;9.122;2023-04-09T14:35:01;2.50;;;2.00;;
1090;SDS011;534;48.704;9.122;2023-04-09T14:37:28;2.43;;;1.83;;
1090;SDS011;534;48.704;9.122;2023-04-09T14:39:56;2.60;;;2.30;;
1090;SDS011;534;48.704;9.122;2023-04-09T14:42:23;2.77;;;2.00;;
1090;SDS011;534;48.704;9.122;2023-04-09T14:44:49;2.93;;;2.20;;
1090;SDS011;534;48.704;9.122;2023-04-09T14:47:16;3.10;;;2.73;;
1090;SDS011;534;48.704;9.122;2023-04-09T14:49:43;2.73;;;2.03;;
1090;SDS011;534;48.704;9.122;2023-04-09T14:52:09;2.93;;;2.23;;
1090;SDS011;534;48.704;9.122;2023-04-09T14:54:36;2.57;;;1.97;;
1090;SDS011;534;48.704;9.122;2023-04-09T14:57:04;2.80;;;2.30;;
1090;SDS011;534;48.704;9.122;2023-04-09T14:59:31;2.60;;;2.17;;
1090;SDS011;534;48.704;9.122;2023-04-09T15:01:57;3.10;;;2.77;;
1090;SDS011;534;48.704;9.122;2023-04-09T15:04:24;3.53;;;3.07;;
1090;SDS011;534;48.704;9.122;2023-04-09T15:06:51;3.57;;;2.70;;
1090;SDS011;534;48.704;9.122;2023-04-09T15:09:17;3.27;;;2.93;;
1090;SDS011;534;48.704;9.122;2023-04-09T15:11:44;3.23;;;2.77;;
1090;SDS011;534;48.704;9.122;2023-04-09T15:14:12;3.13;;;2.83;;
1090;SDS011;534;48.704;9.122;2023-04-09T15:16:39;3.30;;;2.30;;
1090;SDS011;534;48.704;9.122;2023-04-09T15:19:05;3.53;;;3.00;;
1090;SDS011;534;48.704;9.122;2023-04-09T15:21:32;3.20;;;2.70;;
1090;SDS011;534;48.704;9.122;2023-04-09T15:23:59;3.47;;;3.07;;
1090;SDS011;534;48.704;9.122;2023-04-09T15:26:25;3.40;;;2.40;;
1090;SDS011;534;48.704;9.122;2023-04-09T15:28:53;2.70;;;2.30;;
1090;SDS011;534;48.704;9.122;2023-04-09T15:31:27;2.60;;;2.10;;
1090;SDS011;534;48.704;9.122;2023-04-09T15:33:54;2.90;;;2.43;;
1090;SDS011;534;48.704;9.122;2023-04-09T15:36:20;3.10;;;2.50;;
1090;SDS011;534;48.704;9.122;2023-04-09T15:38:47;3.00;;;2.60;;
1090;SDS011;534;48.704;9.122;2023-04-09T15:41:14;3.33;;;2.93;;
1090;SDS011;534;48.704;9.122;2023-04-09T15:43:42;2.77;;;2.13;;
1090;SDS011;534;48.704;9.122;2023-04-09T15:46:09;3.40;;;2.50;;
1090;SDS011;534;48.704;9.122;2023-04-09T15:48:37;2.60;;;2.03;;
1090;SDS011;534;48.704;9.122;2023-04-09T15:51:04;3.50;;;2.73;;
1090;SDS011;534;48.704;9.122;2023-04-09T15:53:31;3.30;;;2.83;;
1090;SDS011;534;48.704;9.122;2023-04-09T15:55:58;2.63;;;2.20;;
1090;SDS011;534;48.704;9.122;2023-04-09T15:58:24;2.73;;;2.07;;
1090;SDS011;534;48.704;9.122;2023-04-09T16:00:51;2.90;;;2.20;;
1090;SDS011;534;48.704;9.122;2023-04-09T16:03:18;2.80;;;2.33;;
1090;SDS011;534;48.704;9.122;2023-04-09T16:05:46;2.83;;;2.40;;
1090;SDS011;534;48.704;9.122;2023-04-09T16:08:13;3.00;;;2.50;;
1090;SDS011;534;48.704;9.122;2023-04-09T16:10:40;2.40;;;1.90;;
1090;SDS011;534;48.704;9.122;2023-04-09T16:13:07;2.90;;;2.30;;
1090;SDS011;534;48.704;9.122;2023-04-09T16:15:33;3.17;;;2.57;;
1090;SDS011;534;48.704;9.122;2023-04-09T16:18:00;2.70;;;2.00;;
1090;SDS011;534;48.704;9.122;2023-04-09T16:20:27;2.93;;;2.43;;
1090;SDS011;534;48.704;9.122;2023-04-09T16:22:56;3.17;;;2.60;;
1090;SDS011;534;48.704;9.122;2023-04-09T16:25:23;2.93;;;2.50;;
1090;SDS011;534;48.704;9.122;2023-04-09T16:27:49;3.53;;;2.97;;
1090;SDS011;534;48.704;9.122;2023-04-09T16:30:16;3.13;;;2.40;;
1090;SDS011;534;48.704;9.122;2023-04-09T16:32:43;3.60;;;2.50;;
1090;SDS011;534;48.704;9.122;2023-04-09T16:35:09;3.10;;;2.50;;
1090;SDS011;534;48.704;9.122;2023-04-09T16:37:36;2.40;;;1.90;;
1090;SDS011;534;48.704;9.122;2023-04-09T16:40:05;3.10;;;2.50;;
1090;SDS011;534;48.704;9.122;2023-04-09T16:42:32;3.07;;;2.40;;
1090;SDS011;534;48.704;9.122;2023-04-09T16:45:00;2.50;;;2.00;;
1090;SDS011;534;48.704;9.122;2023-04-09T16:47:28;3.83;;;2.80;;
1090;SDS011;534;48.704;9.122;2023-04-09T16:49:55;2.80;;;2.30;;
1090;SDS011;534;48.704;9.122;2023-04-09T16:52:22;3.60;;;2.87;;
1090;SDS011;534;48.704;9.122;2023-04-09T16:54:49;2.93;;;2.33;;
1090;SDS011;534;48.704;9.122;2023-04-09T16:57:17;3.10;;;2.60;;
1090;SDS011;534;48.704;9.122;2023-04-09T16:59:43;2.80;;;2.40;;
1090;SDS011;534;48.704;9.122;2023-04-09T17:02:10;2.50;;;2.30;;
1090;SDS011;534;48.704;9.122;2023-04-09T17:04:37;2.80;;;2.50;;
1090;SDS011;534;48.704;9.122;2023-04-09T17:07:03;3.80;;;2.70;;
1090;SDS011;534;48.704;9.122;2023-04-09T17:09:30;3.40;;;2.53;;
1090;SDS011;534;48.704;9.122;2023-04-09T17:11:57;3.23;;;2.37;;
1090;SDS011;534;48.704;9.122;2023-04-09T17:14:25;2.90;;;2.23;;
1090;SDS011;534;48.704;9.122;2023-04-09T17:16:51;2.93;;;2.60;;
1090;SDS011;534;48.704;9.122;2023-04-09T17:19:18;2.97;;;2.20;;
1090;SDS011;534;48.704;9.122;2023-04-09T17:21:45;3.13;;;2.40;;
1090;SDS011;534;48.704;9.122;2023-04-09T17:24:12;3.30;;;2.77;;
1090;SDS011;534;48.704;9.122;2023-04-09T17:26:39;3.20;;;2.67;;
1090;SDS011;534;48.704;9.122;2023-04-09T17:29:05;2.67;;;2.07;;
1090;SDS011;534;48.704;9.122;2023-04-09T17:31:33;2.70;;;2.17;;
1090;SDS011;534;48.704;9.122;2023-04-09T17:34:00;3.00;;;2.60;;
1090;SDS011;534;48.704;9.122;2023-04-09T17:36:27;2.67;;;2.20;;
1090;SDS011;534;48.704;9.122;2023-04-09T17:38:55;3.20;;;2.20;;
1090;SDS011;534;48.704;9.122;2023-04-09T17:41:22;3.27;;;2.67;;
1090;SDS011;534;48.704;9.122;2023-04-09T17:43:49;2.50;;;2.03;;
1090;SDS011;534;48.704;9.122;2023-04-09T17:46:16;3.30;;;2.93;;
1090;SDS011;534;48.704;9.122;2023-04-09T17:48:44;2.50;;;1.90;;
1090;SDS011;534;48.704;9.122;2023-04-09T17:51:12;2.83;;;2.43;;
1090;SDS011;534;48.704;9.122;2023-04-09T17:53:40;2.70;;;2.07;;
1090;SDS011;534;48.704;9.122;2023-04-09T17:56:07;2.67;;;2.07;;
1090;SDS011;534;48.704;9.122;2023-04-09T17:58:35;2.43;;;1.83;;
1090;SDS011;534;48.704;9.122;2023-04-09T18:01:04;2.83;;;2.23;;
1090;SDS011;534;48.704;9.122;2023-04-09T18:03:32;4.47;;;3.27;;
1090;SDS011;534;48.704;9.122;2023-04-09T18:06:00;3.27;;;2.63;;
1090;SDS011;534;48.704;9.122;2023-04-09T18:08:27;3.80;;;3.23;;
1090;SDS011;534;48.704;9.122;2023-04-09T18:10:54;3.00;;;2.43;;
1090;SDS011;534;48.704;9.122;2023-04-09T18:13:20;3.03;;;2.73;;
1090;SDS011;534;48.704;9.122;2023-04-09T18:15:47;3.30;;;2.53;;
1090;SDS011;534;48.704;9.122;2023-04-09T18:18:14;3.30;;;3.00;;
1090;SDS011;534;48.704;9.122;2023-04-09T18:20:41;2.77;;;2.40;;
1090;SDS011;534;48.704;9.122;2023-04-09T18:23:09;3.20;;;2.33;;
1090;SDS011;534;48.704;9.122;2023-04-09T18:25:36;3.00;;;2.40;;
1090;SDS011;534;48.704;9.122;2023-04-09T18:28:02;2.83;;;2.30;;
1090;SDS011;534;48.704;9.122;2023-04-09T18:30:29;4.87;;;3.10;;
1090;SDS011;534;48.704;9.122;2023-04-09T18:32:56;3.10;;;2.80;;
1090;SDS011;534;48.704;9.122;2023-04-09T18:35:22;3.63;;;3.03;;
1090;SDS011;534;48.704;9.122;2023-04-09T18:41:13;3.40;;;2.80;;
1090;SDS011;534;48.704;9.122;2023-04-09T18:43:47;3.83;;;3.07;;
1090;SDS011;534;48.704;9.122;2023-04-09T18:46:13;2.90;;;2.60;;
1090;SDS011;534;48.704;9.122;2023-04-09T18:48:40;3.30;;;2.70;;
1090;SDS011;534;48.704;9.122;2023-04-09T18:51:08;3.20;;;2.87;;
1090;SDS011;534;48.704;9.122;2023-04-09T18:53:34;3.23;;;2.90;;
1090;SDS011;534;48.704;9.122;2023-04-09T18:56:01;2.90;;;2.50;;
1090;SDS011;534;48.704;9.122;2023-04-09T18:58:30;3.87;;;3.40;;
1090;SDS011;534;48.704;9.122;2023-04-09T19:00:57;4.30;;;3.90;;
1090;SDS011;534;48.704;9.122;2023-04-09T19:03:25;3.57;;;3.23;;
1090;SDS011;534;48.704;9.122;2023-04-09T19:05:52;3.53;;;3.23;;
1090;SDS011;534;48.704;9.122;2023-04-09T19:08:18;3.50;;;3.20;;
1090;SDS011;534;48.704;9.122;2023-04-09T19:10:45;3.87;;;3.47;;
1090;SDS011;534;48.704;9.122;2023-04-09T19:13:12;4.67;;;3.40;;
1090;SDS011;534;48.704;9.122;2023-04-09T19:15:40;3.47;;;3.17;;
1090;SDS011;534;48.704;9.122;2023-04-09T19:18:07;3.80;;;3.00;;
1090;SDS011;534;48.704;9.122;2023-04-09T19:20:33;3.33;;;3.03;;
1090;SDS011;534;48.704;9.122;2023-04-09T19:23:01;3.33;;;2.90;;
1090;SDS011;534;48.704;9.122;2023-04-09T19:25:28;4.87;;;3.40;;
1090;SDS011;534;48.704;9.122;2023-04-09T19:27:55;3.50;;;3.00;;
1090;SDS011;534;48.704;9.122;2023-04-09T19:30:21;3.37;;;3.03;;
1090;SDS011;534;48.704;9.122;2023-04-09T19:32:50;3.87;;;3.47;;
1090;SDS011;534;48.704;9.122;2023-04-09T19:35:17;3.63;;;3.27;;
1090;SDS011;534;48.704;9.122;2023-04-09T19:37:43;3.57;;;3.27;;